Time;durP1;ratioP1;P1;durP2;ratioP2;P2;SDS_P1;SDS_P2;PMS_P1;PMS_P2;Temp;Humidity;BMP_temperature;BMP_pressure;BME280_temperature;BME280_humidity;BME280_pressure;Samples;Min_cycle;Max_cycle;Signal;HPM_P1;HPM_P2
2021/12/23 00:01:24;;;;;;;;;;;;;;;;;;5047021;28;19916;-73
2021/12/23 00:03:50;;;;;;;;;;;;;;;;;;5036108;28;20020;-74
2021/12/23 00:06:15;;;;;;;;;;;;;;;;;;5038565;28;19917;-75
2021/12/23 00:08:41;;;;;;;;;;;;;;;;;;5037328;28;20008;-73
2021/12/23 00:11:07;;;;;;;;;;;;;;;;;;5046095;28;19917;-74
2021/12/23 00:13:35;;;;;;;;;;;;;;;;;;5043773;28;20619;-74
2021/12/23 00:16:04;;;;;;;;;;;;;;;;;;5041465;28;19913;-74
2021/12/23 00:23:46;;;;;;;;;;;;;;;;;;5043571;28;19950;-74
2021/12/23 00:26:12;;;;;;;;;;;;;;;;;;5044393;28;19925;-74
2021/12/23 00:28:38;;;;;;;;;;;;;;;;;;5044910;28;19923;-74
2021/12/23 00:31:04;;;;;;;;;;;;;;;;;;5043979;28;19920;-74
2021/12/23 00:33:30;;;;;;;;;;;;;;;;;;5040940;28;19967;-74
2021/12/23 00:35:56;;;;;;;;;;;;;;;;;;5036900;28;19920;-74
2021/12/23 00:38:31;;;;;;;;;;;;;;;;;;5037141;28;19913;-74
2021/12/23 00:41:02;;;;;;;;;;;;;;;;;;5041890;28;19963;-74
2021/12/23 00:43:27;;;;;;;;;;;;;;;;;;5036871;28;20313;-74
2021/12/23 00:45:53;;;;;;;;;;;;;;;;;;5042055;28;19944;-75
2021/12/23 00:48:19;;;;;;;;;;;;;;;;;;5059578;28;20743;-74
2021/12/23 00:50:46;;;;;;;;;;;;;;;;;;5057258;28;19917;-74
2021/12/23 00:53:16;;;;;;;;;;;;;;;;;;5038146;28;19921;-74
2021/12/23 00:55:42;;;;;;;;;;;;;;;;;;5042746;28;21778;-75
2021/12/23 00:58:08;;;;;;;;;;;;;;;;;;5044812;28;19912;-74
2021/12/23 01:00:34;;;;;;;;;;;;;;;;;;5042639;28;20450;-75
2021/12/23 01:03:01;;;;;;;;;;;;;;;;;;5044468;28;19958;-74
2021/12/23 01:05:27;;;;;;;;;;;;;;;;;;5045458;28;19994;-74
2021/12/23 01:07:52;;;;;;;;;;;;;;;;;;5038859;28;19979;-74
2021/12/23 01:10:20;;;;;;;;;;;;;;;;;;5037202;28;21383;-74
2021/12/23 01:12:54;;;;;;;;;;;;;;;;;;5043214;28;19917;-74
2021/12/23 01:18:00;;;;;;;;;;;;;;;;;;5042753;28;19959;-74
2021/12/23 01:20:30;;;;;;;;;;;;;;;;;;5043837;28;20019;-74
2021/12/23 01:22:56;;;;;;;;;;;;;;;;;;5037769;28;20406;-74
2021/12/23 01:25:22;;;;;;;;;;;;;;;;;;5060042;28;19920;-74
2021/12/23 01:27:48;;;;;;;;;;;;;;;;;;5040993;28;19917;-74
2021/12/23 01:30:14;;;;;;;;;;;;;;;;;;5038621;28;19917;-74
2021/12/23 01:32:40;;;;;;;;;;;;;;;;;;5059442;28;19920;-74
2021/12/23 01:35:05;;;;;;;;;;;;;;;;;;5058747;28;19950;-73
2021/12/23 01:37:31;;;;;;;;;;;;;;;;;;5058377;28;19913;-74
2021/12/23 01:39:57;;;;;;;;;;;;;;;;;;5042893;28;20714;-74
2021/12/23 01:42:23;;;;;;;;;;;;;;;;;;5040330;28;19913;-74
2021/12/23 01:44:49;;;;;;;;;;;;;;;;;;5043892;28;19913;-74
2021/12/23 01:47:15;;;;;;;;;;;;;;;;;;5043641;28;21837;-74
2021/12/23 01:49:41;;;;;;;;;;;;;;;;;;5044044;28;19929;-74
2021/12/23 01:52:06;;;;;;;;;;;;;;;;;;5043695;28;19970;-74
2021/12/23 01:54:32;;;;;;;;;;;;;;;;;;5041822;28;19913;-74
2021/12/23 01:56:58;;;;;;;;;;;;;;;;;;5035158;28;20134;-73
2021/12/23 01:59:24;;;;;;;;;;;;;;;;;;5038791;28;19920;-74
2021/12/23 02:01:50;;;;;;;;;;;;;;;;;;5037614;28;20052;-74
2021/12/23 02:04:16;;;;;;;;;;;;;;;;;;5033684;28;19921;-74
2021/12/23 02:06:41;;;;;;;;;;;;;;;;;;5038948;28;20250;-74
2021/12/23 02:09:07;;;;;;;;;;;;;;;;;;5057750;28;19920;-74
2021/12/23 02:11:33;;;;;;;;;;;;;;;;;;5040939;28;19952;-74
2021/12/23 02:13:59;;;;;;;;;;;;;;;;;;5058278;28;19913;-74
2021/12/23 02:16:25;;;;;;;;;;;;;;;;;;5038585;28;20366;-74
2021/12/23 02:18:51;;;;;;;;;;;;;;;;;;5044170;28;19936;-74
2021/12/23 02:21:17;;;;;;;;;;;;;;;;;;5037872;28;19958;-74
2021/12/23 02:23:42;;;;;;;;;;;;;;;;;;5035197;28;19936;-74
2021/12/23 02:26:08;;;;;;;;;;;;;;;;;;5044327;28;19917;-74
2021/12/23 02:28:34;;;;;;;;;;;;;;;;;;5043454;28;19913;-74
2021/12/23 02:31:00;;;;;;;;;;;;;;;;;;5044739;28;19991;-74
2021/12/23 02:33:26;;;;;;;;;;;;;;;;;;5044380;28;19944;-74
2021/12/23 02:35:54;;;;;;;;;;;;;;;;;;5060885;28;20404;-74
2021/12/23 02:38:20;;;;;;;;;;;;;;;;;;5041216;28;19913;-74
2021/12/23 02:40:46;;;;;;;;;;;;;;;;;;5047474;28;19916;-74
2021/12/23 02:43:12;;;;;;;;;;;;;;;;;;5047385;28;19951;-74
2021/12/23 02:45:38;;;;;;;;;;;;;;;;;;5047144;28;19944;-73
2021/12/23 02:48:04;;;;;;;;;;;;;;;;;;5044697;28;19913;-74
2021/12/23 02:50:30;;;;;;;;;;;;;;;;;;5044958;28;20533;-74
2021/12/23 02:52:58;;;;;;;;;;;;;;;;;;5038037;28;19912;-73
2021/12/23 02:55:24;;;;;;;;;;;;;;;;;;5045583;28;19936;-75
2021/12/23 02:57:50;;;;;;;;;;;;;;;;;;5040908;28;20368;-74
2021/12/23 03:00:16;;;;;;;;;;;;;;;;;;5045082;28;19921;-74
2021/12/23 03:02:42;;;;;;;;;;;;;;;;;;5044547;28;19924;-74
2021/12/23 03:05:08;;;;;;;;;;;;;;;;;;5061971;28;19916;-74
2021/12/23 03:07:34;;;;;;;;;;;;;;;;;;5063027;28;19959;-74
2021/12/23 03:09:59;;;;;;;;;;;;;;;;;;5043214;28;19916;-74
2021/12/23 03:12:31;;;;;;;;;;;;;;;;;;5061099;28;20446;-74
2021/12/23 03:14:56;;;;;;;;;;;;;;;;;;5058412;28;19963;-74
2021/12/23 03:17:22;;;;;;;;;;;;;;;;;;5046078;28;20331;-74
2021/12/23 03:19:48;;;;;;;;;;;;;;;;;;5044221;28;20003;-74
2021/12/23 03:22:14;;;;;;;;;;;;;;;;;;5046317;28;19913;-74
2021/12/23 03:24:43;;;;;;;;;;;;;;;;;;5061145;28;19931;-74
2021/12/23 03:27:09;;;;;;;;;;;;;;;;;;5045482;28;19917;-73
2021/12/23 03:29:35;;;;;;;;;;;;;;;;;;5053262;28;19948;-74
2021/12/23 03:32:01;;;;;;;;;;;;;;;;;;5041922;28;19955;-74
2021/12/23 03:34:27;;;;;;;;;;;;;;;;;;5044186;28;19935;-74
2021/12/23 03:36:54;;;;;;;;;;;;;;;;;;5042535;28;19913;-74
2021/12/23 03:39:20;;;;;;;;;;;;;;;;;;5041281;28;20383;-74
2021/12/23 03:41:45;;;;;;;;;;;;;;;;;;5042404;28;19917;-73
2021/12/23 03:44:11;;;;;;;;;;;;;;;;;;5047014;28;19913;-74
2021/12/23 03:46:38;;;;;;;;;;;;;;;;;;5043736;28;19948;-74
2021/12/23 03:49:03;;;;;;;;;;;;;;;;;;5043899;28;19936;-74
2021/12/23 03:51:29;;;;;;;;;;;;;;;;;;5045428;28;19920;-74
2021/12/23 03:53:55;;;;;;;;;;;;;;;;;;5042151;28;20268;-74
2021/12/23 03:56:21;;;;;;;;;;;;;;;;;;5045376;28;21095;-73
2021/12/23 03:58:47;;;;;;;;;;;;;;;;;;5046031;28;20000;-74
2021/12/23 04:01:13;;;;;;;;;;;;;;;;;;5038251;28;20340;-74
2021/12/23 04:03:39;;;;;;;;;;;;;;;;;;5041636;28;19921;-74
2021/12/23 04:06:06;;;;;;;;;;;;;;;;;;5039323;28;19917;-74
2021/12/23 04:08:32;;;;;;;;;;;;;;;;;;5045079;28;20516;-74
2021/12/23 04:10:59;;;;;;;;;;;;;;;;;;5059878;28;20019;-74
2021/12/23 04:13:25;;;;;;;;;;;;;;;;;;5045790;28;20437;-74
2021/12/23 04:15:51;;;;;;;;;;;;;;;;;;5041059;28;19913;-74
2021/12/23 04:18:17;;;;;;;;;;;;;;;;;;5045618;28;19942;-74
2021/12/23 04:20:53;;;;;;;;;;;;;;;;;;5037177;28;19913;-74
2021/12/23 04:23:19;;;;;;;;;;;;;;;;;;5040707;28;19921;-74
2021/12/23 04:25:44;;;;;;;;;;;;;;;;;;5054882;28;19979;-74
2021/12/23 04:28:10;;;;;;;;;;;;;;;;;;5056223;28;19917;-74
2021/12/23 04:30:36;;;;;;;;;;;;;;;;;;5038959;28;19921;-74
2021/12/23 04:33:02;;;;;;;;;;;;;;;;;;5057597;28;19921;-74
2021/12/23 04:35:28;;;;;;;;;;;;;;;;;;5045398;28;19924;-74
2021/12/23 04:37:54;;;;;;;;;;;;;;;;;;5039787;28;19913;-73
2021/12/23 04:40:20;;;;;;;;;;;;;;;;;;5043064;28;20463;-74
2021/12/23 04:42:46;;;;;;;;;;;;;;;;;;5044836;28;19916;-74
2021/12/23 04:45:11;;;;;;;;;;;;;;;;;;5043557;28;19923;-73
2021/12/23 04:47:37;;;;;;;;;;;;;;;;;;5059138;28;20264;-74
2021/12/23 04:50:03;;;;;;;;;;;;;;;;;;5041642;28;20047;-74
2021/12/23 04:52:29;;;;;;;;;;;;;;;;;;5043730;28;19913;-75
2021/12/23 04:54:55;;;;;;;;;;;;;;;;;;5041553;28;19958;-74
2021/12/23 04:57:22;;;;;;;;;;;;;;;;;;5040917;28;20300;-74
2021/12/23 04:59:47;;;;;;;;;;;;;;;;;;5042259;28;19913;-73
2021/12/23 05:02:13;;;;;;;;;;;;;;;;;;5039517;28;19928;-74
2021/12/23 05:04:39;;;;;;;;;;;;;;;;;;5044306;28;20063;-74
2021/12/23 05:07:05;;;;;;;;;;;;;;;;;;5041078;28;20516;-74
2021/12/23 05:09:31;;;;;;;;;;;;;;;;;;5038170;28;20081;-74
2021/12/23 05:11:57;;;;;;;;;;;;;;;;;;5032671;28;20436;-75
2021/12/23 05:14:23;;;;;;;;;;;;;;;;;;5039834;28;19944;-74
2021/12/23 05:16:49;;;;;;;;;;;;;;;;;;5054060;28;19923;-74
2021/12/23 05:19:14;;;;;;;;;;;;;;;;;;5036729;28;19913;-74
2021/12/23 05:21:40;;;;;;;;;;;;;;;;;;5039360;28;20319;-74
2021/12/23 05:24:06;;;;;;;;;;;;;;;;;;5035672;28;20296;-74
2021/12/23 05:26:32;;;;;;;;;;;;;;;;;;5039239;28;19992;-74
2021/12/23 05:28:58;;;;;;;;;;;;;;;;;;5028005;28;19920;-74
2021/12/23 05:31:24;;;;;;;;;;;;;;;;;;5038637;28;19916;-74
2021/12/23 05:33:49;;;;;;;;;;;;;;;;;;5039398;28;20415;-74
2021/12/23 05:36:15;;;;;;;;;;;;;;;;;;5039730;28;19929;-74
2021/12/23 05:38:41;;;;;;;;;;;;;;;;;;5039462;28;19920;-74
2021/12/23 05:41:07;;;;;;;;;;;;;;;;;;5039273;28;19999;-74
2021/12/23 05:43:33;;;;;;;;;;;;;;;;;;5044537;28;20356;-74
2021/12/23 05:46:00;;;;;;;;;;;;;;;;;;5035999;28;19913;-74
2021/12/23 05:48:26;;;;;;;;;;;;;;;;;;5038761;28;19978;-74
2021/12/23 05:50:52;;;;;;;;;;;;;;;;;;5040111;28;20456;-74
2021/12/23 05:53:18;;;;;;;;;;;;;;;;;;5035656;28;19931;-74
2021/12/23 05:55:44;;;;;;;;;;;;;;;;;;5054374;28;20006;-74
2021/12/23 05:58:09;;;;;;;;;;;;;;;;;;5032526;28;19921;-74
2021/12/23 06:00:35;;;;;;;;;;;;;;;;;;5028733;28;19920;-74
2021/12/23 06:03:01;;;;;;;;;;;;;;;;;;5040352;28;20113;-74
2021/12/23 06:05:27;;;;;;;;;;;;;;;;;;5034701;28;19913;-74
2021/12/23 06:07:53;;;;;;;;;;;;;;;;;;5043827;28;20599;-74
2021/12/23 06:10:19;;;;;;;;;;;;;;;;;;5035788;28;19917;-74
2021/12/23 06:12:44;;;;;;;;;;;;;;;;;;5043968;28;20007;-74
2021/12/23 06:15:10;;;;;;;;;;;;;;;;;;5039488;28;19913;-74
2021/12/23 06:17:36;;;;;;;;;;;;;;;;;;5037844;28;19955;-74
2021/12/23 06:20:02;;;;;;;;;;;;;;;;;;5043952;28;19912;-74
2021/12/23 06:22:28;;;;;;;;;;;;;;;;;;5058530;28;19920;-74
2021/12/23 06:24:54;;;;;;;;;;;;;;;;;;5042483;28;20280;-74
2021/12/23 06:27:20;;;;;;;;;;;;;;;;;;5043945;28;19913;-74
2021/12/23 06:29:46;;;;;;;;;;;;;;;;;;5038495;28;19917;-74
2021/12/23 06:32:11;;;;;;;;;;;;;;;;;;5056313;28;19958;-74
2021/12/23 06:34:37;;;;;;;;;;;;;;;;;;5042714;28;19912;-74
2021/12/23 06:37:04;;;;;;;;;;;;;;;;;;5038517;28;20014;-74
2021/12/23 06:39:30;;;;;;;;;;;;;;;;;;5042712;28;19939;-73
2021/12/23 06:41:55;;;;;;;;;;;;;;;;;;5047583;28;19912;-74
2021/12/23 06:44:21;;;;;;;;;;;;;;;;;;5038592;28;19909;-74
2021/12/23 06:46:47;;;;;;;;;;;;;;;;;;5043718;28;19913;-74
2021/12/23 06:49:13;;;;;;;;;;;;;;;;;;5046745;28;20022;-74
2021/12/23 06:51:39;;;;;;;;;;;;;;;;;;5045364;28;19982;-74
2021/12/23 06:54:05;;;;;;;;;;;;;;;;;;5043906;28;19920;-74
2021/12/23 06:56:31;;;;;;;;;;;;;;;;;;5040923;28;20428;-75
2021/12/23 06:58:57;;;;;;;;;;;;;;;;;;5044296;28;19927;-73
2021/12/23 07:01:23;;;;;;;;;;;;;;;;;;5047755;28;19910;-74
2021/12/23 07:06:31;;;;;;;;;;;;;;;;;;5043670;28;19917;-75
2021/12/23 07:08:57;;;;;;;;;;;;;;;;;;5044875;28;19916;-74
2021/12/23 07:11:23;;;;;;;;;;;;;;;;;;5034649;28;19991;-75
2021/12/23 07:13:49;;;;;;;;;;;;;;;;;;5039212;28;19978;-74
2021/12/23 07:16:15;;;;;;;;;;;;;;;;;;5043975;28;20015;-74
2021/12/23 07:18:41;;;;;;;;;;;;;;;;;;5046758;28;19909;-74
2021/12/23 07:21:06;;;;;;;;;;;;;;;;;;5048674;28;20490;-74
2021/12/23 07:23:32;;;;;;;;;;;;;;;;;;5047609;28;19925;-74
2021/12/23 07:25:58;;;;;;;;;;;;;;;;;;5040803;28;19921;-74
2021/12/23 07:28:24;;;;;;;;;;;;;;;;;;5049986;28;19909;-75
2021/12/23 07:30:50;;;;;;;;;;;;;;;;;;5044958;28;20575;-74
2021/12/23 07:33:16;;;;;;;;;;;;;;;;;;5046392;28;19916;-74
2021/12/23 07:35:42;;;;;;;;;;;;;;;;;;5043028;28;19960;-74
2021/12/23 07:38:07;;;;;;;;;;;;;;;;;;5059783;28;20396;-75
2021/12/23 07:40:33;;;;;;;;;;;;;;;;;;5046448;28;19922;-75
2021/12/23 07:43:09;;;;;;;;;;;;;;;;;;5044905;28;19959;-75
2021/12/23 07:45:35;;;;;;;;;;;;;;;;;;5046297;28;19943;-74
2021/12/23 07:48:01;;;;;;;;;;;;;;;;;;5046483;28;20004;-74
2021/12/23 07:50:27;;;;;;;;;;;;;;;;;;5059563;28;19917;-74
2021/12/23 07:52:53;;;;;;;;;;;;;;;;;;5058776;28;20390;-75
2021/12/23 07:55:20;;;;;;;;;;;;;;;;;;5060485;28;19913;-74
2021/12/23 07:57:46;;;;;;;;;;;;;;;;;;5047856;28;20076;-75
2021/12/23 08:00:12;;;;;;;;;;;;;;;;;;5043614;28;20035;-74
2021/12/23 08:02:37;;;;;;;;;;;;;;;;;;5057700;28;19913;-74
2021/12/23 08:05:03;;;;;;;;;;;;;;;;;;5040945;28;20011;-74
2021/12/23 08:07:29;;;;;;;;;;;;;;;;;;5042270;28;20078;-74
2021/12/23 08:09:56;;;;;;;;;;;;;;;;;;5035789;28;20035;-74
2021/12/23 08:12:21;;;;;;;;;;;;;;;;;;5041085;28;19917;-74
2021/12/23 08:14:47;;;;;;;;;;;;;;;;;;5038783;28;20441;-74
2021/12/23 08:17:13;;;;;;;;;;;;;;;;;;5041669;28;19913;-75
2021/12/23 08:19:39;;;;;;;;;;;;;;;;;;5043389;28;19913;-74
2021/12/23 08:22:06;;;;;;;;;;;;;;;;;;5042062;28;19912;-74
2021/12/23 08:24:31;;;;;;;;;;;;;;;;;;5040817;28;19925;-74
2021/12/23 08:26:57;;;;;;;;;;;;;;;;;;5036982;28;19919;-74
2021/12/23 08:29:24;;;;;;;;;;;;;;;;;;5045663;28;19917;-75
2021/12/23 08:31:53;;;;;;;;;;;;;;;;;;5046231;28;20008;-75
2021/12/23 08:34:19;;;;;;;;;;;;;;;;;;5046219;28;19913;-75
2021/12/23 08:36:45;;;;;;;;;;;;;;;;;;5061253;28;20078;-75
2021/12/23 08:39:10;;;;;;;;;;;;;;;;;;5039370;28;19924;-75
2021/12/23 08:41:36;;;;;;;;;;;;;;;;;;5042280;28;20012;-75
2021/12/23 08:44:02;;;;;;;;;;;;;;;;;;5061718;28;19913;-75
2021/12/23 08:46:28;;;;;;;;;;;;;;;;;;5046396;28;20201;-74
2021/12/23 08:48:54;;;;;;;;;;;;;;;;;;5046463;28;19920;-75
2021/12/23 08:51:20;;;;;;;;;;;;;;;;;;5045656;28;20120;-75
2021/12/23 08:53:46;;;;;;;;;;;;;;;;;;5061345;28;19921;-75
2021/12/23 08:56:11;;;;;;;;;;;;;;;;;;5060952;28;19913;-75
2021/12/23 08:58:37;;;;;;;;;;;;;;;;;;5045568;28;19986;-74
2021/12/23 09:01:03;;;;;;;;;;;;;;;;;;5044108;28;19968;-75
2021/12/23 09:03:32;;;;;;;;;;;;;;;;;;5045877;28;20327;-75
2021/12/23 09:05:57;;;;;;;;;;;;;;;;;;5060894;28;19923;-74
2021/12/23 09:08:25;;;;;;;;;;;;;;;;;;5045829;28;19916;-74
2021/12/23 09:10:51;;;;;;;;;;;;;;;;;;5060453;28;19955;-75
2021/12/23 09:13:17;;;;;;;;;;;;;;;;;;5045298;28;19913;-75
2021/12/23 09:15:43;;;;;;;;;;;;;;;;;;5045431;28;20224;-74
2021/12/23 09:18:09;;;;;;;;;;;;;;;;;;5060797;28;19913;-74
2021/12/23 09:20:36;;;;;;;;;;;;;;;;;;5045472;28;19912;-75
2021/12/23 09:23:01;;;;;;;;;;;;;;;;;;5060484;28;19921;-74
2021/12/23 09:25:32;;;;;;;;;;;;;;;;;;5045350;28;19944;-74
2021/12/23 09:33:12;;;;;;;;;;;;;;;;;;5044924;28;20347;-75
2021/12/23 09:35:38;;;;;;;;;;;;;;;;;;5060934;28;19908;-74
2021/12/23 09:38:04;;;;;;;;;;;;;;;;;;5044993;28;19948;-75
2021/12/23 09:40:32;;;;;;;;;;;;;;;;;;5044855;28;19952;-74
2021/12/23 09:42:58;;;;;;;;;;;;;;;;;;5060691;28;19913;-74
2021/12/23 09:45:23;;;;;;;;;;;;;;;;;;5060024;28;19909;-74
2021/12/23 09:47:49;;;;;;;;;;;;;;;;;;5044785;28;20007;-74
2021/12/23 09:50:15;;;;;;;;;;;;;;;;;;5060596;28;19939;-74
2021/12/23 09:52:41;;;;;;;;;;;;;;;;;;5044919;28;19913;-74
2021/12/23 09:55:07;;;;;;;;;;;;;;;;;;5045078;28;19909;-74
2021/12/23 09:57:33;;;;;;;;;;;;;;;;;;5044973;28;20312;-75
2021/12/23 09:59:59;;;;;;;;;;;;;;;;;;5042809;28;20295;-75
2021/12/23 10:02:25;;;;;;;;;;;;;;;;;;5044439;28;19926;-74
2021/12/23 10:04:51;;;;;;;;;;;;;;;;;;5044730;28;20369;-75
2021/12/23 10:07:17;;;;;;;;;;;;;;;;;;5059931;28;19921;-74
2021/12/23 10:10:10;;;;;;;;;;;;;;;;;;5059742;28;20011;-73
2021/12/23 10:31:42;;;;;;;;;;;;;;;;;;5044286;28;19962;-74
2021/12/23 10:39:43;;;;;;;;;;;;;;;;;;5044720;28;19948;-74
2021/12/23 10:42:09;;;;;;;;;;;;;;;;;;5060116;28;19948;-74
2021/12/23 10:44:35;;;;;;;;;;;;;;;;;;5059625;28;19948;-74
2021/12/23 10:47:00;;;;;;;;;;;;;;;;;;5044592;28;20398;-73
2021/12/23 10:49:41;;;;;;;;;;;;;;;;;;5045452;28;19912;-74
2021/12/23 10:52:16;;;;;;;;;;;;;;;;;;5048004;28;19978;-74
2021/12/23 11:00:00;;;;;;;;;;;;;;;;;;5049180;28;19967;-71
2021/12/23 11:02:34;;;;;;;;;;;;;;;;;;5063346;28;19917;-70
2021/12/23 11:07:35;;;;;;;;;;;;;;;;;;5047937;28;19915;-72
2021/12/23 11:10:17;;;;;;;;;;;;;;;;;;5063015;28;20287;-71
2021/12/23 11:40:13;;;;;;;;;;;;;;;;;;5044039;28;20276;-70
2021/12/23 11:43:01;;;;;;;;;;;;;;;;;;5062523;28;19917;-71
2021/12/23 11:45:24;;;;;;;;;;;;;;;;;;5045105;28;19917;-72
2021/12/23 11:47:50;;;;;;;;;;;;;;;;;;5051623;28;19943;-71
2021/12/23 11:50:22;;;;;;;;;;;;;;;;;;5049087;28;19921;-71
2021/12/23 11:52:48;;;;;;;;;;;;;;;;;;5061190;28;19920;-72
2021/12/23 11:55:14;;;;;;;;;;;;;;;;;;5045146;28;20452;-71
2021/12/23 11:57:41;;;;;;;;;;;;;;;;;;5043666;28;20088;-71
2021/12/23 12:00:37;;;;;;;;;;;;;;;;;;5042318;28;20364;-72
2021/12/23 12:03:03;;;;;;;;;;;;;;;;;;5043679;28;19913;-72
2021/12/23 12:05:29;;;;;;;;;;;;;;;;;;5056007;28;19912;-72
2021/12/23 12:07:55;;;;;;;;;;;;;;;;;;5046499;28;19920;-71
2021/12/23 12:10:21;;;;;;;;;;;;;;;;;;5045347;28;19917;-72
2021/12/23 12:12:47;;;;;;;;;;;;;;;;;;5043046;28;19975;-72
2021/12/23 12:15:18;;;;;;;;;;;;;;;;;;5042959;28;19916;-72
2021/12/23 12:17:44;;;;;;;;;;;;;;;;;;5050155;28;20417;-72
2021/12/23 12:20:11;;;;;;;;;;;;;;;;;;5064749;28;20019;-73
2021/12/23 12:22:36;;;;;;;;;;;;;;;;;;5044611;28;19920;-72
2021/12/23 12:25:02;;;;;;;;;;;;;;;;;;5056008;28;20365;-72
2021/12/23 12:27:28;;;;;;;;;;;;;;;;;;5059394;28;19916;-71
2021/12/23 12:29:54;;;;;;;;;;;;;;;;;;5039253;28;20226;-72
2021/12/23 12:32:20;;;;;;;;;;;;;;;;;;5039668;28;20419;-72
2021/12/23 12:34:46;;;;;;;;;;;;;;;;;;5043496;28;19999;-72
2021/12/23 12:37:12;;;;;;;;;;;;;;;;;;5043523;28;19912;-70
2021/12/23 12:39:40;;;;;;;;;;;;;;;;;;5031076;28;20035;-70
2021/12/23 12:42:10;;;;;;;;;;;;;;;;;;5053601;28;20277;-69
2021/12/23 12:44:37;;;;;;;;;;;;;;;;;;5040426;28;19916;-70
2021/12/23 12:47:16;;;;;;;;;;;;;;;;;;5034656;28;20019;-69
2021/12/23 12:49:43;;;;;;;;;;;;;;;;;;5042109;28;19921;-70
2021/12/23 12:52:10;;;;;;;;;;;;;;;;;;5043801;28;20272;-69
2021/12/23 12:54:37;;;;;;;;;;;;;;;;;;5046304;28;19919;-70
2021/12/23 12:57:03;;;;;;;;;;;;;;;;;;5059796;28;20047;-69
2021/12/23 12:59:29;;;;;;;;;;;;;;;;;;5042738;28;20788;-69
2021/12/23 13:01:55;;;;;;;;;;;;;;;;;;5044452;28;19923;-70
2021/12/23 13:04:21;;;;;;;;;;;;;;;;;;5057591;28;19913;-69
2021/12/23 13:06:47;;;;;;;;;;;;;;;;;;5045140;28;19912;-69
2021/12/23 13:09:15;;;;;;;;;;;;;;;;;;5063962;28;19936;-71
2021/12/23 13:11:41;;;;;;;;;;;;;;;;;;5060268;28;20570;-69
2021/12/23 13:14:12;;;;;;;;;;;;;;;;;;5044253;28;20008;-69
2021/12/23 13:16:38;;;;;;;;;;;;;;;;;;5042850;28;19912;-71
2021/12/23 13:19:04;;;;;;;;;;;;;;;;;;5037960;28;19963;-72
2021/12/23 13:21:30;;;;;;;;;;;;;;;;;;5060679;28;19919;-71
2021/12/23 13:23:56;;;;;;;;;;;;;;;;;;5053020;28;19937;-71
2021/12/23 13:26:22;;;;;;;;;;;;;;;;;;5043149;28;19921;-72
2021/12/23 13:28:50;;;;;;;;;;;;;;;;;;5060084;28;19913;-71
2021/12/23 13:31:16;;;;;;;;;;;;;;;;;;5042732;28;20396;-71
2021/12/23 13:33:42;;;;;;;;;;;;;;;;;;5060128;28;19956;-71
2021/12/23 13:36:08;;;;;;;;;;;;;;;;;;5045045;28;19913;-71
2021/12/23 13:38:34;;;;;;;;;;;;;;;;;;5044903;28;19917;-71
2021/12/23 13:40:59;;;;;;;;;;;;;;;;;;5058027;28;19991;-71
2021/12/23 13:43:25;;;;;;;;;;;;;;;;;;5037232;28;20432;-71
2021/12/23 13:45:51;;;;;;;;;;;;;;;;;;5040339;28;19917;-71
2021/12/23 13:48:17;;;;;;;;;;;;;;;;;;5041261;28;21272;-71
2021/12/23 13:50:43;;;;;;;;;;;;;;;;;;5035931;28;19925;-70
2021/12/23 13:53:09;;;;;;;;;;;;;;;;;;5040558;28;19919;-71
2021/12/23 13:55:34;;;;;;;;;;;;;;;;;;5033710;28;19936;-72
2021/12/23 13:58:00;;;;;;;;;;;;;;;;;;5040678;28;19912;-69
2021/12/23 14:00:26;;;;;;;;;;;;;;;;;;5038658;28;20164;-71
2021/12/23 14:02:53;;;;;;;;;;;;;;;;;;5040391;28;20011;-71
2021/12/23 14:05:19;;;;;;;;;;;;;;;;;;5030805;28;20004;-72
2021/12/23 14:07:45;;;;;;;;;;;;;;;;;;5043764;28;20011;-71
2021/12/23 14:10:11;;;;;;;;;;;;;;;;;;5043375;28;19924;-71
2021/12/23 14:12:37;;;;;;;;;;;;;;;;;;5041612;28;19917;-72
2021/12/23 14:15:03;;;;;;;;;;;;;;;;;;5044702;28;19924;-71
2021/12/23 14:17:29;;;;;;;;;;;;;;;;;;5044362;28;20586;-71
2021/12/23 14:23:11;;;;;;;;;;;;;;;;;;5044147;28;20000;-72
2021/12/23 14:25:26;;;;;;;;;;;;;;;;;;5046918;28;19974;-72
2021/12/23 14:27:51;;;;;;;;;;;;;;;;;;5062663;28;19913;-67
2021/12/23 14:30:20;;;;;;;;;;;;;;;;;;5047251;28;19924;-70
2021/12/23 14:32:46;;;;;;;;;;;;;;;;;;5049950;28;19917;-70
2021/12/23 14:35:12;;;;;;;;;;;;;;;;;;5049651;28;20000;-70
2021/12/23 14:37:38;;;;;;;;;;;;;;;;;;5051323;28;19919;-71
2021/12/23 14:40:04;;;;;;;;;;;;;;;;;;5044059;28;19952;-71
2021/12/23 14:42:31;;;;;;;;;;;;;;;;;;5062713;28;19971;-71
2021/12/23 14:44:56;;;;;;;;;;;;;;;;;;5052330;28;19912;-70
2021/12/23 14:47:24;;;;;;;;;;;;;;;;;;5048880;28;20356;-72
2021/12/23 14:52:16;;;;;;;;;;;;;;;;;;5048100;28;20273;-70
2021/12/23 14:54:42;;;;;;;;;;;;;;;;;;5063707;28;20052;-71
2021/12/23 14:57:08;;;;;;;;;;;;;;;;;;5048010;28;20436;-71
2021/12/23 14:59:34;;;;;;;;;;;;;;;;;;5045449;28;20245;-71
2021/12/23 15:02:00;;;;;;;;;;;;;;;;;;5047331;28;20066;-70
2021/12/23 15:04:25;;;;;;;;;;;;;;;;;;5062052;28;19909;-69
2021/12/23 15:06:51;;;;;;;;;;;;;;;;;;5062394;28;19912;-71
2021/12/23 15:09:17;;;;;;;;;;;;;;;;;;5039102;28;20277;-70
2021/12/23 15:11:43;;;;;;;;;;;;;;;;;;5045503;28;20001;-70
2021/12/23 15:14:09;;;;;;;;;;;;;;;;;;5047902;28;19916;-71
2021/12/23 15:16:35;;;;;;;;;;;;;;;;;;5062654;28;20175;-71
2021/12/23 15:19:13;;;;;;;;;;;;;;;;;;5063770;28;20250;-71
2021/12/23 15:21:45;;;;;;;;;;;;;;;;;;5046079;28;19913;-71
2021/12/23 15:24:11;;;;;;;;;;;;;;;;;;5054146;28;19925;-70
2021/12/23 15:26:37;;;;;;;;;;;;;;;;;;5044413;28;20008;-70
2021/12/23 15:29:02;;;;;;;;;;;;;;;;;;5061773;28;19917;-71
2021/12/23 15:31:28;;;;;;;;;;;;;;;;;;5060062;28;19950;-70
2021/12/23 15:33:54;;;;;;;;;;;;;;;;;;5063479;28;20584;-71
2021/12/23 15:36:21;;;;;;;;;;;;;;;;;;5048791;28;19916;-70
2021/12/23 15:38:47;;;;;;;;;;;;;;;;;;5049422;28;19924;-71
2021/12/23 15:41:13;;;;;;;;;;;;;;;;;;5065166;28;19917;-70
2021/12/23 15:43:38;;;;;;;;;;;;;;;;;;5048466;28;19924;-70
2021/12/23 15:46:04;;;;;;;;;;;;;;;;;;5043978;28;19946;-70
2021/12/23 15:48:32;;;;;;;;;;;;;;;;;;5064902;28;20377;-70
2021/12/23 15:51:00;;;;;;;;;;;;;;;;;;5049435;28;19920;-70
2021/12/23 15:53:26;;;;;;;;;;;;;;;;;;5048619;28;19917;-70
2021/12/23 15:55:56;;;;;;;;;;;;;;;;;;5048308;28;19912;-70
2021/12/23 15:58:22;;;;;;;;;;;;;;;;;;5046491;28;19917;-71
2021/12/23 16:00:48;;;;;;;;;;;;;;;;;;5048610;28;19920;-71
2021/12/23 16:03:14;;;;;;;;;;;;;;;;;;5040806;28;20323;-71
2021/12/23 16:08:06;;;;;;;;;;;;;;;;;;5044067;28;19924;-70
2021/12/23 16:10:32;;;;;;;;;;;;;;;;;;5049551;28;20404;-71
2021/12/23 16:12:58;;;;;;;;;;;;;;;;;;5043979;28;19913;-71
2021/12/23 16:15:24;;;;;;;;;;;;;;;;;;5039827;28;19943;-71
2021/12/23 16:17:50;;;;;;;;;;;;;;;;;;5055541;28;19917;-72
2021/12/23 16:20:16;;;;;;;;;;;;;;;;;;5056778;28;20348;-71
2021/12/23 16:22:42;;;;;;;;;;;;;;;;;;5033223;28;20625;-71
2021/12/23 16:25:08;;;;;;;;;;;;;;;;;;5045002;28;19996;-70
2021/12/23 16:27:34;;;;;;;;;;;;;;;;;;5049622;28;20402;-71
2021/12/23 16:30:00;;;;;;;;;;;;;;;;;;5045025;28;19916;-72
2021/12/23 16:32:25;;;;;;;;;;;;;;;;;;5049304;28;19963;-70
2021/12/23 16:34:51;;;;;;;;;;;;;;;;;;5049205;28;20003;-71
2021/12/23 16:37:17;;;;;;;;;;;;;;;;;;5043732;28;19917;-70
2021/12/23 16:39:46;;;;;;;;;;;;;;;;;;5047724;28;20023;-71
2021/12/23 16:42:12;;;;;;;;;;;;;;;;;;5049010;28;20505;-71
2021/12/23 16:44:37;;;;;;;;;;;;;;;;;;5064959;28;19955;-71
2021/12/23 16:47:03;;;;;;;;;;;;;;;;;;5048808;28;20380;-71
2021/12/23 16:49:29;;;;;;;;;;;;;;;;;;5048490;28;19928;-70
2021/12/23 16:51:55;;;;;;;;;;;;;;;;;;5063811;28;20464;-71
2021/12/23 16:54:21;;;;;;;;;;;;;;;;;;5046343;28;20284;-70
2021/12/23 16:59:33;;;;;;;;;;;;;;;;;;5041068;28;19943;-70
2021/12/23 17:02:00;;;;;;;;;;;;;;;;;;5047728;28;19909;-71
2021/12/23 17:04:26;;;;;;;;;;;;;;;;;;5046639;28;20190;-71
2021/12/23 17:06:52;;;;;;;;;;;;;;;;;;5059671;28;20437;-71
2021/12/23 17:09:18;;;;;;;;;;;;;;;;;;5061236;28;19909;-71
2021/12/23 17:11:48;;;;;;;;;;;;;;;;;;5045702;28;19917;-70
2021/12/23 17:14:14;;;;;;;;;;;;;;;;;;5043694;28;19932;-70
2021/12/23 17:16:40;;;;;;;;;;;;;;;;;;5063527;28;19913;-71
2021/12/23 17:19:12;;;;;;;;;;;;;;;;;;5040683;28;19959;-70
2021/12/23 17:21:52;;;;;;;;;;;;;;;;;;5040877;28;20380;-70
2021/12/23 17:24:18;;;;;;;;;;;;;;;;;;5042516;28;20109;-71
2021/12/23 17:26:44;;;;;;;;;;;;;;;;;;5059133;28;20265;-71
2021/12/23 17:29:09;;;;;;;;;;;;;;;;;;5053255;28;19917;-72
2021/12/23 17:31:35;;;;;;;;;;;;;;;;;;5057270;28;19920;-71
2021/12/23 17:34:01;;;;;;;;;;;;;;;;;;5044278;28;19917;-72
2021/12/23 17:36:27;;;;;;;;;;;;;;;;;;5042297;28;20072;-71
2021/12/23 17:38:53;;;;;;;;;;;;;;;;;;5033097;28;20328;-72
2021/12/23 17:41:19;;;;;;;;;;;;;;;;;;5059413;28;19912;-71
2021/12/23 17:43:45;;;;;;;;;;;;;;;;;;5043410;28;19916;-78
2021/12/23 17:46:11;;;;;;;;;;;;;;;;;;5038157;28;19909;-74
2021/12/23 17:48:36;;;;;;;;;;;;;;;;;;5039012;28;19974;-71
2021/12/23 17:51:02;;;;;;;;;;;;;;;;;;5041361;28;19964;-71
2021/12/23 17:53:33;;;;;;;;;;;;;;;;;;5043078;28;19927;-71
2021/12/23 17:55:59;;;;;;;;;;;;;;;;;;5044238;28;19921;-70
2021/12/23 17:58:25;;;;;;;;;;;;;;;;;;5041713;28;19935;-68
2021/12/23 18:00:51;;;;;;;;;;;;;;;;;;5055254;28;19913;-68
2021/12/23 18:03:17;;;;;;;;;;;;;;;;;;5043738;28;19921;-71
2021/12/23 18:05:43;;;;;;;;;;;;;;;;;;5044147;28;20386;-72
2021/12/23 18:08:09;;;;;;;;;;;;;;;;;;5041708;28;19963;-71